createdAt,value
2022-10-30T00:00:11.860Z,8.53
2022-10-30T00:03:00.610Z,10.17
2022-10-30T00:05:51.634Z,9.50
2022-10-30T00:08:40.148Z,8.13
2022-10-30T00:11:29.397Z,9.90
2022-10-30T00:14:18.262Z,7.90
2022-10-30T00:17:08.029Z,10.10
2022-10-30T00:19:56.434Z,8.07
2022-10-30T00:22:44.795Z,10.10
2022-10-30T00:25:33.201Z,8.70
2022-10-30T00:28:21.594Z,6.67
2022-10-30T00:31:10.457Z,6.10
2022-10-30T00:34:00.421Z,8.90
2022-10-30T00:36:48.820Z,6.93
2022-10-30T00:39:37.263Z,5.93
2022-10-30T00:42:31.135Z,8.63
2022-10-30T00:45:19.889Z,5.90
2022-10-30T00:48:10.281Z,9.20
2022-10-30T00:51:01.030Z,5.70
2022-10-30T00:53:49.601Z,7.40
2022-10-30T00:56:38.134Z,8.27
2022-10-30T00:59:29.866Z,7.37
2022-10-30T01:02:18.940Z,6.33
2022-10-30T01:05:07.794Z,6.93
2022-10-30T01:07:57.923Z,6.87
2022-10-30T01:10:47.478Z,4.77
2022-10-30T01:13:36.920Z,7.63
2022-10-30T01:16:44.411Z,9.10
2022-10-30T01:19:37.565Z,8.27
2022-10-30T01:22:36.505Z,6.27
2022-10-30T01:25:37.857Z,11.00
2022-10-30T01:28:34.874Z,6.13
2022-10-30T01:31:34.930Z,9.53
2022-10-30T01:34:30.092Z,6.40
2022-10-30T01:37:23.165Z,6.50
2022-10-30T01:40:15.320Z,4.80
2022-10-30T01:43:05.261Z,6.63
2022-10-30T01:46:24.085Z,5.90
2022-10-30T01:49:39.841Z,4.80
2022-10-30T01:52:37.989Z,6.13
2022-10-30T01:55:33.756Z,6.57
2022-10-30T01:58:25.486Z,6.17
2022-10-30T02:01:14.644Z,7.17
2022-10-30T02:06:52.444Z,6.00
2022-10-30T02:09:41.277Z,6.13
2022-10-30T02:12:29.753Z,8.83
2022-10-30T02:15:20.202Z,5.73
2022-10-30T02:18:09.160Z,7.73
2022-10-30T02:20:58.958Z,9.03
2022-10-30T02:23:47.294Z,7.33
2022-10-30T02:26:35.717Z,7.73
2022-10-30T02:29:24.079Z,6.20
2022-10-30T02:32:12.485Z,5.53
2022-10-30T02:35:00.835Z,10.13
2022-10-30T02:37:50.723Z,6.67
2022-10-30T02:40:39.094Z,9.20
2022-10-30T02:43:27.526Z,6.73
2022-10-30T02:46:15.890Z,4.90
2022-10-30T02:49:04.454Z,7.13
2022-10-30T02:51:52.835Z,7.67
2022-10-30T02:54:42.586Z,6.67
2022-10-30T02:57:32.003Z,5.33
2022-10-30T03:00:20.508Z,7.07
2022-10-30T03:03:08.850Z,5.80
2022-10-30T03:05:57.228Z,6.80
2022-10-30T03:08:46.335Z,6.10
2022-10-30T03:11:36.577Z,5.57
2022-10-30T03:14:24.950Z,6.97
2022-10-30T03:17:13.344Z,4.77
2022-10-30T03:20:01.718Z,9.03
2022-10-30T03:22:50.085Z,5.70
2022-10-30T03:25:38.463Z,5.50
2022-10-30T03:28:29.779Z,4.40
2022-10-30T03:31:19.596Z,4.90
2022-10-30T03:34:08.101Z,6.00
2022-10-30T03:36:56.482Z,7.00
2022-10-30T03:39:44.859Z,5.63
2022-10-30T03:42:33.242Z,6.60
2022-10-30T03:45:22.986Z,6.07
2022-10-30T03:48:11.363Z,9.10
2022-10-30T03:51:00.889Z,7.07
2022-10-30T03:53:49.253Z,6.63
2022-10-30T03:56:37.678Z,7.43
2022-10-30T03:59:26.054Z,6.03
2022-10-30T04:02:16.021Z,6.90
2022-10-30T04:05:04.928Z,6.17
2022-10-30T04:07:57.880Z,4.87
2022-10-30T04:10:46.592Z,9.40
2022-10-30T04:13:35.020Z,4.83
2022-10-30T04:16:23.412Z,6.17
2022-10-30T04:19:13.152Z,6.40
2022-10-30T04:22:01.558Z,7.23
2022-10-30T04:24:50.161Z,5.70
2022-10-30T04:27:42.117Z,5.70
2022-10-30T04:30:34.119Z,7.53
2022-10-30T04:33:22.502Z,7.00
2022-10-30T04:36:12.343Z,6.20
2022-10-30T04:39:02.408Z,7.07
2022-10-30T04:41:50.784Z,5.50
2022-10-30T04:44:39.157Z,5.13
2022-10-30T04:47:27.511Z,7.13
2022-10-30T04:50:16.161Z,5.90
2022-10-30T04:53:07.373Z,6.53
2022-10-30T04:55:56.322Z,4.53
2022-10-30T04:58:44.693Z,6.23
2022-10-30T05:01:33.221Z,7.47
2022-10-30T05:04:21.743Z,9.43
2022-10-30T05:07:10.122Z,6.57
2022-10-30T05:09:59.887Z,9.97
2022-10-30T05:12:48.272Z,8.07
2022-10-30T05:15:36.663Z,4.00
2022-10-30T05:18:25.099Z,8.90
2022-10-30T05:21:13.450Z,7.63
2022-10-30T05:24:01.821Z,7.90
2022-10-30T05:26:52.070Z,9.27
2022-10-30T05:29:40.457Z,9.77
2022-10-30T05:32:28.812Z,5.83
2022-10-30T05:35:17.278Z,6.20
2022-10-30T05:38:07.332Z,7.60
2022-10-30T05:40:55.685Z,5.50
2022-10-30T05:43:45.415Z,10.37
2022-10-30T05:46:33.796Z,5.47
2022-10-30T05:49:22.181Z,5.90
2022-10-30T05:52:10.557Z,7.70
2022-10-30T05:54:58.962Z,6.73
2022-10-30T05:57:47.531Z,7.97
2022-10-30T06:00:39.233Z,15.17
2022-10-30T06:03:27.758Z,6.40
2022-10-30T06:06:16.163Z,17.77
2022-10-30T06:09:04.652Z,12.93
2022-10-30T06:11:53.013Z,8.67
2022-10-30T06:14:41.382Z,8.33
2022-10-30T06:17:32.966Z,8.93
2022-10-30T06:20:22.472Z,8.87
2022-10-30T06:23:11.684Z,9.60
2022-10-30T06:26:00.046Z,10.50
2022-10-30T06:28:48.402Z,7.33
2022-10-30T06:31:36.793Z,4.27
2022-10-30T06:34:27.262Z,3.23
2022-10-30T06:37:15.694Z,4.30
2022-10-30T06:40:04.349Z,4.73
2022-10-30T06:42:53.966Z,4.50
2022-10-30T06:45:42.371Z,5.43
2022-10-30T06:48:30.749Z,24.67
2022-10-30T06:51:20.560Z,25.00
2022-10-30T06:54:08.926Z,11.57
2022-10-30T06:56:57.313Z,8.63
2022-10-30T06:59:45.653Z,7.90
2022-10-30T07:02:34.180Z,7.27
2022-10-30T07:05:22.530Z,9.87
2022-10-30T07:08:12.573Z,9.90
2022-10-30T07:11:00.936Z,7.20
2022-10-30T07:13:49.336Z,7.73
2022-10-30T07:16:37.710Z,5.67
2022-10-30T07:19:26.367Z,9.20
2022-10-30T07:22:14.717Z,7.30
2022-10-30T07:25:04.875Z,6.80
2022-10-30T07:27:54.281Z,8.50
2022-10-30T07:30:42.688Z,13.27
2022-10-30T07:33:31.038Z,12.93
2022-10-30T07:36:19.426Z,11.30
2022-10-30T07:39:07.814Z,14.07
2022-10-30T07:41:57.597Z,10.23
2022-10-30T07:44:45.972Z,8.80
2022-10-30T07:47:34.330Z,10.63
2022-10-30T07:50:22.894Z,8.80
2022-10-30T07:53:11.308Z,14.23
2022-10-30T07:55:59.857Z,10.73
2022-10-30T07:58:49.925Z,8.27
2022-10-30T08:01:38.519Z,10.73
2022-10-30T08:04:27.053Z,7.73
2022-10-30T08:07:15.469Z,10.70
2022-10-30T08:10:03.984Z,8.90
2022-10-30T08:12:52.372Z,8.73
2022-10-30T08:15:43.512Z,9.23
2022-10-30T08:18:31.884Z,11.37
2022-10-30T08:21:20.258Z,9.37
2022-10-30T08:24:09.213Z,8.93
2022-10-30T08:26:57.562Z,7.77
2022-10-30T08:29:45.932Z,10.53
2022-10-30T08:32:35.659Z,8.73
2022-10-30T08:35:24.098Z,9.80
2022-10-30T08:38:12.554Z,10.33
2022-10-30T08:41:02.959Z,8.67
2022-10-30T08:43:51.330Z,8.07
2022-10-30T08:46:40.031Z,7.07
2022-10-30T08:49:29.806Z,9.00
2022-10-30T08:52:18.185Z,9.87
2022-10-30T08:55:07.906Z,7.77
2022-10-30T08:57:56.260Z,9.67
2022-10-30T09:00:44.646Z,12.33
2022-10-30T09:03:33.001Z,9.03
2022-10-30T09:06:22.752Z,8.27
2022-10-30T09:09:11.983Z,7.80
2022-10-30T09:12:00.376Z,7.53
2022-10-30T09:14:48.714Z,9.23
2022-10-30T09:17:37.102Z,8.27
2022-10-30T09:20:25.884Z,7.60
2022-10-30T09:23:15.625Z,7.30
2022-10-30T09:26:03.991Z,6.73
2022-10-30T09:28:55.503Z,9.10
2022-10-30T09:31:44.023Z,7.77
2022-10-30T09:34:32.507Z,7.20
2022-10-30T09:37:20.872Z,11.90
2022-10-30T09:40:12.507Z,11.90
2022-10-30T09:43:04.479Z,11.53
2022-10-30T09:46:19.973Z,13.77
2022-10-30T09:49:25.022Z,16.37
2022-10-30T09:52:32.290Z,10.27
2022-10-30T09:55:31.741Z,7.50
2022-10-30T09:58:25.690Z,10.77
2022-10-30T10:01:18.549Z,12.83
2022-10-30T10:04:21.002Z,11.27
2022-10-30T10:07:18.448Z,14.03
2022-10-30T10:10:11.001Z,16.53
2022-10-30T10:13:01.633Z,10.47
2022-10-30T10:15:52.625Z,11.30
2022-10-30T10:18:45.958Z,7.33
2022-10-30T10:21:37.237Z,10.63
2022-10-30T10:24:27.184Z,10.97
2022-10-30T10:27:22.677Z,9.93
2022-10-30T10:30:15.954Z,10.80
2022-10-30T10:33:20.264Z,9.97
2022-10-30T10:36:20.101Z,10.67
2022-10-30T10:39:20.265Z,13.53
2022-10-30T10:42:20.415Z,8.27
2022-10-30T10:45:21.769Z,6.87
2022-10-30T10:48:33.497Z,8.73
2022-10-30T10:51:23.265Z,11.00
2022-10-30T10:54:13.844Z,10.13
2022-10-30T10:57:02.662Z,9.73
2022-10-30T10:59:54.147Z,11.30
2022-10-30T11:02:48.134Z,8.90
2022-10-30T11:05:40.777Z,8.33
2022-10-30T11:08:30.559Z,9.20
2022-10-30T11:11:18.918Z,8.00
2022-10-30T11:14:15.207Z,8.80
2022-10-30T11:17:09.566Z,9.90
2022-10-30T11:20:02.977Z,15.83
2022-10-30T11:23:00.418Z,11.57
2022-10-30T11:25:49.254Z,7.73
2022-10-30T11:28:42.547Z,8.93
2022-10-30T11:31:35.302Z,8.17
2022-10-30T11:34:32.812Z,10.03
2022-10-30T11:37:35.356Z,7.80
2022-10-30T11:40:25.750Z,8.10
2022-10-30T11:43:28.764Z,10.37
2022-10-30T11:46:23.625Z,9.77
2022-10-30T11:49:29.667Z,11.53
2022-10-30T11:52:21.184Z,10.60
2022-10-30T11:55:18.395Z,9.43
2022-10-30T11:58:10.078Z,8.77
2022-10-30T12:01:07.074Z,11.33
2022-10-30T12:03:56.360Z,17.63
2022-10-30T12:06:58.760Z,16.33
2022-10-30T12:09:48.204Z,11.33
2022-10-30T12:12:43.986Z,11.47
2022-10-30T12:15:39.327Z,13.43
2022-10-30T12:21:22.372Z,10.17
2022-10-30T12:24:18.524Z,9.03
2022-10-30T12:27:12.472Z,9.53
2022-10-30T12:30:09.954Z,6.97
2022-10-30T12:33:02.996Z,8.20
2022-10-30T12:35:55.485Z,11.50
2022-10-30T12:38:46.433Z,13.63
2022-10-30T12:41:37.652Z,11.50
2022-10-30T12:44:29.737Z,11.47
2022-10-30T12:47:26.739Z,7.47
2022-10-30T12:50:20.911Z,6.87
2022-10-30T12:53:17.469Z,10.43
2022-10-30T12:56:10.909Z,9.80
2022-10-30T12:59:09.289Z,6.70
2022-10-30T13:02:00.945Z,7.63
2022-10-30T13:04:55.535Z,8.77
2022-10-30T13:07:46.661Z,9.53
2022-10-30T13:10:39.424Z,7.37
2022-10-30T13:13:33.789Z,9.50
2022-10-30T13:16:25.474Z,8.17
2022-10-30T13:19:14.655Z,8.17
2022-10-30T13:22:08.562Z,8.03
2022-10-30T13:25:04.048Z,7.93
2022-10-30T13:27:55.369Z,8.37
2022-10-30T13:30:47.467Z,7.73
2022-10-30T13:33:41.628Z,7.10
2022-10-30T13:36:34.546Z,9.00
2022-10-30T13:39:29.961Z,7.43
2022-10-30T13:42:27.374Z,7.57
2022-10-30T13:45:32.499Z,7.17
2022-10-30T13:48:29.144Z,10.20
2022-10-30T13:51:44.558Z,8.03
2022-10-30T13:54:37.824Z,9.20
2022-10-30T13:57:31.380Z,9.87
2022-10-30T14:00:21.390Z,9.77
2022-10-30T14:03:19.309Z,9.13
2022-10-30T14:06:13.768Z,7.67
2022-10-30T14:09:09.902Z,7.03
2022-10-30T14:12:02.445Z,7.40
2022-10-30T14:14:50.929Z,10.10
2022-10-30T14:17:39.414Z,9.10
2022-10-30T14:20:29.165Z,10.83
2022-10-30T14:23:22.095Z,17.70
2022-10-30T14:26:21.034Z,18.40
2022-10-30T14:29:33.126Z,13.63
2022-10-30T14:32:44.080Z,12.13
2022-10-30T14:35:41.897Z,9.13
2022-10-30T14:38:36.133Z,8.33
2022-10-30T14:41:45.650Z,8.40
2022-10-30T14:45:01.599Z,10.30
2022-10-30T14:47:56.718Z,8.97
2022-10-30T14:50:57.438Z,9.83
2022-10-30T14:53:56.382Z,8.10
2022-10-30T14:56:48.060Z,8.77
2022-10-30T14:59:37.671Z,8.43
2022-10-30T15:02:35.368Z,9.60
2022-10-30T15:05:42.161Z,8.73
2022-10-30T15:09:04.311Z,11.70
2022-10-30T15:12:17.246Z,8.57
2022-10-30T15:15:07.925Z,8.70
2022-10-30T15:17:58.093Z,9.63
2022-10-30T15:20:51.476Z,9.40
2022-10-30T15:23:43.191Z,11.93
2022-10-30T15:26:35.672Z,10.87
2022-10-30T15:29:26.269Z,9.87
2022-10-30T15:32:18.667Z,11.00
2022-10-30T15:35:15.894Z,7.60
2022-10-30T15:38:07.637Z,8.37
2022-10-30T15:40:59.233Z,9.50
2022-10-30T15:43:47.699Z,11.57
2022-10-30T15:46:37.364Z,12.07
2022-10-30T15:49:31.622Z,10.77
2022-10-30T15:52:23.326Z,19.07
2022-10-30T15:55:16.051Z,16.70
2022-10-30T15:58:05.932Z,14.80
2022-10-30T16:00:59.304Z,9.73
2022-10-30T16:03:53.534Z,11.43
2022-10-30T16:06:41.996Z,17.73
2022-10-30T16:09:30.421Z,16.30
2022-10-30T16:12:20.281Z,10.27
2022-10-30T16:15:10.085Z,10.30
2022-10-30T16:18:11.711Z,10.13
2022-10-30T16:21:04.414Z,11.87
2022-10-30T16:23:55.405Z,12.70
2022-10-30T16:26:44.165Z,13.20
2022-10-30T16:29:34.317Z,21.20
2022-10-30T16:32:25.442Z,18.37
2022-10-30T16:35:15.028Z,14.10
2022-10-30T16:38:04.421Z,16.77
2022-10-30T16:40:53.460Z,24.00
2022-10-30T16:43:44.644Z,26.73
2022-10-30T16:46:39.867Z,24.63
2022-10-30T16:49:30.055Z,42.17
2022-10-30T16:52:19.021Z,40.03
2022-10-30T16:55:09.830Z,55.47
2022-10-30T16:58:03.665Z,28.63
2022-10-30T17:00:59.447Z,22.50
2022-10-30T17:03:50.563Z,16.93
2022-10-30T17:06:41.936Z,12.30
2022-10-30T17:09:30.837Z,12.50
2022-10-30T17:12:24.293Z,16.40
2022-10-30T17:15:14.417Z,13.70
2022-10-30T17:18:16.692Z,13.80
2022-10-30T17:21:09.296Z,14.30
2022-10-30T17:24:00.539Z,12.60
2022-10-30T17:26:56.531Z,16.80
2022-10-30T17:29:48.461Z,15.50
2022-10-30T17:32:56.190Z,16.93
2022-10-30T17:35:45.077Z,12.77
2022-10-30T17:38:35.184Z,12.27
2022-10-30T17:41:26.224Z,11.77
2022-10-30T17:44:19.961Z,13.70
2022-10-30T17:47:20.555Z,8.47
2022-10-30T17:50:09.705Z,12.73
2022-10-30T17:53:01.262Z,10.90
2022-10-30T17:55:56.940Z,9.10
2022-10-30T17:58:48.487Z,11.83
2022-10-30T18:01:37.504Z,12.27
2022-10-30T18:04:26.008Z,10.33
2022-10-30T18:07:15.181Z,7.90
2022-10-30T18:10:03.643Z,10.37
2022-10-30T18:12:53.472Z,15.43
2022-10-30T18:15:43.422Z,13.57
2022-10-30T18:18:31.811Z,14.13
2022-10-30T18:21:21.639Z,13.93
2022-10-30T18:24:13.741Z,13.97
2022-10-30T18:27:02.129Z,14.43
2022-10-30T18:29:51.899Z,26.03
2022-10-30T18:32:40.329Z,65.20
2022-10-30T18:35:31.863Z,51.10
2022-10-30T18:38:20.304Z,22.53
2022-10-30T18:41:13.109Z,22.87
2022-10-30T18:44:01.565Z,20.23
2022-10-30T18:46:51.355Z,21.87
2022-10-30T18:49:39.754Z,15.40
2022-10-30T18:53:32.703Z,16.23
2022-10-30T18:56:03.655Z,12.20
2022-10-30T18:58:32.507Z,12.40
2022-10-30T19:01:16.680Z,11.93
2022-10-30T19:03:45.958Z,13.30
2022-10-30T19:06:16.173Z,13.40
2022-10-30T19:08:46.026Z,11.83
2022-10-30T19:11:18.797Z,12.83
2022-10-30T19:13:50.586Z,11.37
2022-10-30T19:16:20.155Z,12.27
2022-10-30T19:18:48.991Z,12.33
2022-10-30T19:21:19.337Z,14.50
2022-10-30T19:23:49.472Z,13.43
2022-10-30T19:26:18.050Z,11.37
2022-10-30T19:28:46.732Z,11.67
2022-10-30T19:31:17.235Z,11.07
2022-10-30T19:33:46.045Z,16.37
2022-10-30T19:36:28.203Z,27.10
2022-10-30T19:38:58.408Z,36.37
2022-10-30T19:41:27.151Z,90.27
2022-10-30T19:43:55.613Z,37.67
2022-10-30T19:46:24.121Z,26.37
2022-10-30T19:48:57.678Z,17.43
2022-10-30T19:51:27.524Z,12.33
2022-10-30T19:53:57.669Z,13.33
2022-10-30T19:56:27.047Z,14.30
2022-10-30T19:58:56.264Z,13.63
2022-10-30T20:01:24.861Z,9.93
2022-10-30T20:03:53.443Z,12.20
2022-10-30T20:06:24.279Z,11.37
2022-10-30T20:08:55.214Z,11.93
2022-10-30T20:11:32.663Z,11.83
2022-10-30T20:14:02.373Z,11.90
2022-10-30T20:16:32.922Z,13.37
2022-10-30T20:19:02.002Z,39.87
2022-10-30T20:21:32.696Z,36.47
2022-10-30T20:24:01.336Z,29.83
2022-10-30T20:26:31.632Z,21.70
2022-10-30T20:29:01.672Z,13.40
2022-10-30T20:31:31.027Z,11.60
2022-10-30T20:34:00.090Z,10.57
2022-10-30T20:36:30.493Z,9.90
2022-10-30T20:38:59.315Z,13.17
2022-10-30T20:41:32.167Z,11.63
2022-10-30T20:44:01.110Z,14.40
2022-10-30T20:46:30.005Z,10.93
2022-10-30T20:49:01.322Z,8.93
2022-10-30T20:51:36.786Z,12.20
2022-10-30T20:54:06.008Z,8.70
2022-10-30T20:56:36.380Z,11.97
2022-10-30T20:59:05.717Z,11.20
2022-10-30T21:01:34.992Z,9.80
2022-10-30T21:04:06.311Z,13.60
2022-10-30T21:06:35.665Z,11.70
2022-10-30T21:09:04.963Z,7.93
2022-10-30T21:11:35.737Z,13.00
2022-10-30T21:14:04.983Z,13.80
2022-10-30T21:16:33.613Z,14.47
2022-10-30T21:19:02.020Z,12.60
2022-10-30T21:21:31.106Z,13.63
2022-10-30T21:23:59.992Z,13.77
2022-10-30T21:26:35.194Z,12.97
2022-10-30T21:29:06.347Z,12.57
2022-10-30T21:31:35.534Z,10.07
2022-10-30T21:34:13.635Z,11.50
2022-10-30T21:36:42.905Z,9.50
2022-10-30T21:39:11.621Z,8.97
2022-10-30T21:41:40.427Z,9.30
2022-10-30T21:44:12.278Z,10.33
2022-10-30T21:46:44.615Z,18.83
2022-10-30T21:49:16.508Z,18.77
2022-10-30T21:51:50.799Z,21.47
2022-10-30T21:54:22.389Z,16.87
2022-10-30T21:56:53.094Z,14.67
2022-10-30T21:59:26.271Z,16.90
2022-10-30T22:01:56.623Z,15.13
2022-10-30T22:04:25.550Z,11.77
2022-10-30T22:06:53.992Z,8.70
2022-10-30T22:09:22.534Z,11.73
2022-10-30T22:11:51.011Z,10.10
2022-10-30T22:14:19.444Z,10.30
2022-10-30T22:16:49.607Z,10.47
2022-10-30T22:19:18.627Z,12.97
2022-10-30T22:21:47.237Z,15.47
2022-10-30T22:24:17.041Z,12.37
2022-10-30T22:26:45.897Z,9.77
2022-10-30T22:29:14.538Z,13.40
2022-10-30T22:31:43.606Z,11.60
2022-10-30T22:34:13.422Z,35.87
2022-10-30T22:36:42.450Z,29.70
2022-10-30T22:39:13.361Z,41.50
2022-10-30T22:41:42.680Z,67.73
2022-10-30T22:44:13.480Z,31.17
2022-10-30T22:46:42.098Z,16.00
2022-10-30T22:49:10.589Z,9.03
2022-10-30T22:51:41.060Z,8.50
2022-10-30T22:54:12.164Z,11.20
2022-10-30T22:56:41.389Z,10.30
2022-10-30T22:59:12.190Z,8.57
2022-10-30T23:01:44.339Z,11.53
2022-10-30T23:04:14.081Z,10.23
2022-10-30T23:06:44.210Z,10.70
2022-10-30T23:09:17.239Z,12.03
2022-10-30T23:11:45.921Z,11.10
2022-10-30T23:14:15.349Z,8.50
2022-10-30T23:16:43.720Z,7.23
2022-10-30T23:19:12.176Z,7.80
2022-10-30T23:21:40.680Z,7.93
2022-10-30T23:24:10.795Z,11.17
2022-10-30T23:26:39.325Z,8.63
2022-10-30T23:29:07.752Z,10.03
2022-10-30T23:31:37.943Z,7.30
2022-10-30T23:34:07.861Z,8.63
2022-10-30T23:36:37.029Z,7.00
2022-10-30T23:39:08.424Z,7.50
2022-10-30T23:41:38.233Z,9.60
2022-10-30T23:44:08.322Z,8.80
2022-10-30T23:46:37.216Z,7.80
2022-10-30T23:49:06.188Z,11.60
2022-10-30T23:51:35.158Z,7.77
2022-10-30T23:54:03.677Z,6.73
2022-10-30T23:56:32.143Z,7.00
2022-10-30T23:59:01.973Z,8.63
